sensor_id;sensor_type;location;lat;lon;timestamp;pressure;altitude;pressure_sealevel;temperature;humidity
70968;BME280;58629;48.808;8.820;2023-08-06T00:00:18;96399.09;;;13.12;100.00
70968;BME280;58629;48.808;8.820;2023-08-06T00:02:44;96394.97;;;13.11;100.00
70968;BME280;58629;48.808;8.820;2023-08-06T00:05:09;96390.16;;;12.96;100.00
70968;BME280;58629;48.808;8.820;2023-08-06T00:07:34;96392.53;;;12.94;100.00
70968;BME280;58629;48.808;8.820;2023-08-06T00:10:00;96392.09;;;12.96;100.00
70968;BME280;58629;48.808;8.820;2023-08-06T00:12:25;96381.59;;;12.92;100.00
70968;BME280;58629;48.808;8.820;2023-08-06T00:14:51;96389.88;;;12.94;100.00
70968;BME280;58629;48.808;8.820;2023-08-06T00:17:17;96385.41;;;12.91;100.00
70968;BME280;58629;48.808;8.820;2023-08-06T00:19:42;96387.34;;;12.91;100.00
70968;BME280;58629;48.808;8.820;2023-08-06T00:22:07;96389.72;;;12.89;100.00
70968;BME280;58629;48.808;8.820;2023-08-06T00:24:34;96384.84;;;12.87;100.00
70968;BME280;58629;48.808;8.820;2023-08-06T00:26:59;96384.53;;;12.85;100.00
70968;BME280;58629;48.808;8.820;2023-08-06T00:29:24;96382.00;;;12.82;100.00
70968;BME280;58629;48.808;8.820;2023-08-06T00:31:50;96371.22;;;12.76;100.00
70968;BME280;58629;48.808;8.820;2023-08-06T00:34:15;96365.28;;;12.72;100.00
70968;BME280;58629;48.808;8.820;2023-08-06T00:36:40;96366.59;;;12.68;100.00
70968;BME280;58629;48.808;8.820;2023-08-06T00:39:06;96366.28;;;12.66;100.00
70968;BME280;58629;48.808;8.820;2023-08-06T00:41:32;96359.97;;;12.63;100.00
70968;BME280;58629;48.808;8.820;2023-08-06T00:43:57;96353.59;;;12.61;100.00
70968;BME280;58629;48.808;8.820;2023-08-06T00:46:23;96351.38;;;12.59;100.00
70968;BME280;58629;48.808;8.820;2023-08-06T00:48:49;96350.03;;;12.55;100.00
70968;BME280;58629;48.808;8.820;2023-08-06T00:51:15;96351.22;;;12.54;100.00
70968;BME280;58629;48.808;8.820;2023-08-06T00:53:41;96342.75;;;12.46;100.00
70968;BME280;58629;48.808;8.820;2023-08-06T00:56:08;96336.28;;;12.47;100.00
70968;BME280;58629;48.808;8.820;2023-08-06T00:58:35;96330.97;;;12.47;100.00
70968;BME280;58629;48.808;8.820;2023-08-06T01:01:01;96329.78;;;12.48;100.00
70968;BME280;58629;48.808;8.820;2023-08-06T01:03:26;96321.09;;;12.48;100.00
70968;BME280;58629;48.808;8.820;2023-08-06T01:05:52;96317.69;;;12.47;100.00
70968;BME280;58629;48.808;8.820;2023-08-06T01:10:59;96330.81;;;12.42;100.00
70968;BME280;58629;48.808;8.820;2023-08-06T01:13:41;96332.41;;;12.39;100.00
70968;BME280;58629;48.808;8.820;2023-08-06T01:16:09;96322.09;;;12.41;100.00
70968;BME280;58629;48.808;8.820;2023-08-06T01:18:35;96321.34;;;12.41;100.00
70968;BME280;58629;48.808;8.820;2023-08-06T01:21:02;96322.53;;;12.40;100.00
70968;BME280;58629;48.808;8.820;2023-08-06T01:23:28;96327.66;;;12.34;100.00
70968;BME280;58629;48.808;8.820;2023-08-06T01:28:48;96321.34;;;12.32;100.00
70968;BME280;58629;48.808;8.820;2023-08-06T01:31:22;96315.88;;;12.35;100.00
70968;BME280;58629;48.808;8.820;2023-08-06T01:33:50;96312.34;;;12.38;100.00
70968;BME280;58629;48.808;8.820;2023-08-06T01:36:16;96316.78;;;12.41;100.00
70968;BME280;58629;48.808;8.820;2023-08-06T01:38:43;96311.88;;;12.31;100.00
70968;BME280;58629;48.808;8.820;2023-08-06T01:41:09;96314.84;;;12.33;100.00
70968;BME280;58629;48.808;8.820;2023-08-06T01:43:34;96311.28;;;12.27;100.00
70968;BME280;58629;48.808;8.820;2023-08-06T01:45:59;96306.09;;;12.23;100.00
70968;BME280;58629;48.808;8.820;2023-08-06T01:48:25;96313.00;;;12.20;100.00
70968;BME280;58629;48.808;8.820;2023-08-06T01:50:50;96309.34;;;12.18;100.00
70968;BME280;58629;48.808;8.820;2023-08-06T01:53:15;96298.72;;;12.18;100.00
70968;BME280;58629;48.808;8.820;2023-08-06T01:55:40;96309.63;;;12.20;100.00
70968;BME280;58629;48.808;8.820;2023-08-06T01:58:06;96305.03;;;12.20;100.00
70968;BME280;58629;48.808;8.820;2023-08-06T02:00:31;96294.44;;;12.20;100.00
70968;BME280;58629;48.808;8.820;2023-08-06T02:02:56;96291.63;;;12.24;100.00
70968;BME280;58629;48.808;8.820;2023-08-06T02:05:22;96291.22;;;12.26;100.00
70968;BME280;58629;48.808;8.820;2023-08-06T02:07:47;96284.84;;;12.23;100.00
70968;BME280;58629;48.808;8.820;2023-08-06T02:10:12;96279.84;;;12.25;100.00
70968;BME280;58629;48.808;8.820;2023-08-06T02:12:38;96283.88;;;12.30;100.00
70968;BME280;58629;48.808;8.820;2023-08-06T02:15:03;96275.75;;;12.33;100.00
70968;BME280;58629;48.808;8.820;2023-08-06T02:17:29;96269.16;;;12.38;100.00
70968;BME280;58629;48.808;8.820;2023-08-06T02:19:54;96258.81;;;12.40;100.00
70968;BME280;58629;48.808;8.820;2023-08-06T02:22:19;96262.81;;;12.44;100.00
70968;BME280;58629;48.808;8.820;2023-08-06T02:24:45;96257.69;;;12.50;100.00
70968;BME280;58629;48.808;8.820;2023-08-06T02:27:10;96257.38;;;12.57;100.00
70968;BME280;58629;48.808;8.820;2023-08-06T02:29:35;96255.63;;;12.63;100.00
70968;BME280;58629;48.808;8.820;2023-08-06T02:32:01;96255.47;;;12.66;100.00
70968;BME280;58629;48.808;8.820;2023-08-06T02:34:27;96252.69;;;12.70;100.00
70968;BME280;58629;48.808;8.820;2023-08-06T02:36:52;96253.28;;;12.74;100.00
70968;BME280;58629;48.808;8.820;2023-08-06T02:39:18;96258.88;;;12.76;100.00
70968;BME280;58629;48.808;8.820;2023-08-06T02:41:44;96232.91;;;12.80;100.00
70968;BME280;58629;48.808;8.820;2023-08-06T02:44:09;96237.06;;;12.81;100.00
70968;BME280;58629;48.808;8.820;2023-08-06T02:46:34;96230.72;;;12.87;100.00
70968;BME280;58629;48.808;8.820;2023-08-06T02:48:59;96232.50;;;12.90;100.00
70968;BME280;58629;48.808;8.820;2023-08-06T02:51:25;96220.97;;;12.93;100.00
70968;BME280;58629;48.808;8.820;2023-08-06T02:53:50;96217.88;;;12.95;100.00
70968;BME280;58629;48.808;8.820;2023-08-06T02:56:15;96219.50;;;13.01;100.00
70968;BME280;58629;48.808;8.820;2023-08-06T02:58:41;96212.88;;;12.97;100.00
70968;BME280;58629;48.808;8.820;2023-08-06T03:01:06;96209.59;;;13.02;100.00
70968;BME280;58629;48.808;8.820;2023-08-06T03:03:33;96212.25;;;13.02;100.00
70968;BME280;58629;48.808;8.820;2023-08-06T03:05:59;96220.69;;;13.10;100.00
70968;BME280;58629;48.808;8.820;2023-08-06T03:08:24;96229.72;;;13.12;100.00
70968;BME280;58629;48.808;8.820;2023-08-06T03:10:50;96227.66;;;13.16;100.00
70968;BME280;58629;48.808;8.820;2023-08-06T03:13:19;96227.50;;;13.20;100.00
70968;BME280;58629;48.808;8.820;2023-08-06T03:15:58;96222.91;;;13.20;100.00
70968;BME280;58629;48.808;8.820;2023-08-06T03:18:24;96218.34;;;13.21;100.00
70968;BME280;58629;48.808;8.820;2023-08-06T03:20:51;96221.72;;;13.21;100.00
70968;BME280;58629;48.808;8.820;2023-08-06T03:23:16;96212.28;;;13.20;100.00
70968;BME280;58629;48.808;8.820;2023-08-06T03:25:42;96219.34;;;13.23;100.00
70968;BME280;58629;48.808;8.820;2023-08-06T03:28:07;96218.47;;;13.26;100.00
70968;BME280;58629;48.808;8.820;2023-08-06T03:30:33;96216.28;;;13.25;100.00
70968;BME280;58629;48.808;8.820;2023-08-06T03:32:58;96220.09;;;13.24;100.00
70968;BME280;58629;48.808;8.820;2023-08-06T03:35:23;96228.06;;;13.24;100.00
70968;BME280;58629;48.808;8.820;2023-08-06T03:37:49;96231.19;;;13.22;100.00
70968;BME280;58629;48.808;8.820;2023-08-06T03:40:15;96233.09;;;13.22;100.00
70968;BME280;58629;48.808;8.820;2023-08-06T03:42:40;96229.28;;;13.23;100.00
70968;BME280;58629;48.808;8.820;2023-08-06T03:45:06;96232.50;;;13.18;100.00
70968;BME280;58629;48.808;8.820;2023-08-06T03:47:31;96233.13;;;13.13;100.00
70968;BME280;58629;48.808;8.820;2023-08-06T03:49:57;96239.00;;;13.07;100.00
70968;BME280;58629;48.808;8.820;2023-08-06T03:52:22;96235.13;;;12.99;100.00
70968;BME280;58629;48.808;8.820;2023-08-06T03:54:47;96241.50;;;12.93;100.00
70968;BME280;58629;48.808;8.820;2023-08-06T03:57:12;96240.63;;;12.87;100.00
70968;BME280;58629;48.808;8.820;2023-08-06T03:59:38;96241.47;;;12.84;100.00
70968;BME280;58629;48.808;8.820;2023-08-06T04:02:03;96252.84;;;12.84;100.00
70968;BME280;58629;48.808;8.820;2023-08-06T04:04:28;96248.44;;;12.90;100.00
70968;BME280;58629;48.808;8.820;2023-08-06T04:06:54;96251.69;;;12.94;100.00
70968;BME280;58629;48.808;8.820;2023-08-06T04:09:19;96238.41;;;13.03;100.00
70968;BME280;58629;48.808;8.820;2023-08-06T04:11:44;96250.09;;;13.06;100.00
70968;BME280;58629;48.808;8.820;2023-08-06T04:14:10;96243.91;;;13.09;100.00
70968;BME280;58629;48.808;8.820;2023-08-06T04:16:35;96242.72;;;13.10;100.00
70968;BME280;58629;48.808;8.820;2023-08-06T04:19:01;96244.31;;;13.07;100.00
70968;BME280;58629;48.808;8.820;2023-08-06T04:21:26;96241.38;;;13.05;100.00
70968;BME280;58629;48.808;8.820;2023-08-06T04:23:51;96236.63;;;13.00;100.00
70968;BME280;58629;48.808;8.820;2023-08-06T04:26:16;96247.25;;;13.00;100.00
70968;BME280;58629;48.808;8.820;2023-08-06T04:28:42;96250.66;;;12.92;100.00
70968;BME280;58629;48.808;8.820;2023-08-06T04:31:07;96244.72;;;12.88;100.00
70968;BME280;58629;48.808;8.820;2023-08-06T04:33:32;96249.19;;;12.91;100.00
70968;BME280;58629;48.808;8.820;2023-08-06T04:35:58;96242.66;;;12.92;100.00
70968;BME280;58629;48.808;8.820;2023-08-06T04:38:24;96239.41;;;12.88;100.00
70968;BME280;58629;48.808;8.820;2023-08-06T04:40:50;96235.59;;;12.89;99.51
70968;BME280;58629;48.808;8.820;2023-08-06T04:43:15;96240.91;;;12.89;99.45
70968;BME280;58629;48.808;8.820;2023-08-06T04:45:48;96243.41;;;12.92;99.09
70968;BME280;58629;48.808;8.820;2023-08-06T04:48:14;96239.16;;;12.95;99.37
70968;BME280;58629;48.808;8.820;2023-08-06T04:50:43;96237.78;;;12.99;100.00
70968;BME280;58629;48.808;8.820;2023-08-06T04:53:09;96250.66;;;13.01;98.90
70968;BME280;58629;48.808;8.820;2023-08-06T04:55:34;96236.34;;;13.07;97.95
70968;BME280;58629;48.808;8.820;2023-08-06T04:57:59;96239.78;;;13.17;97.95
70968;BME280;58629;48.808;8.820;2023-08-06T05:00:24;96248.47;;;13.27;98.12
70968;BME280;58629;48.808;8.820;2023-08-06T05:02:50;96244.75;;;13.33;97.33
70968;BME280;58629;48.808;8.820;2023-08-06T05:05:15;96240.91;;;13.43;97.93
70968;BME280;58629;48.808;8.820;2023-08-06T05:07:40;96237.66;;;13.48;98.43
70968;BME280;58629;48.808;8.820;2023-08-06T05:10:06;96238.41;;;13.49;96.68
70968;BME280;58629;48.808;8.820;2023-08-06T05:12:31;96246.94;;;13.53;97.00
70968;BME280;58629;48.808;8.820;2023-08-06T05:14:57;96238.84;;;13.56;98.56
70968;BME280;58629;48.808;8.820;2023-08-06T05:17:22;96236.19;;;13.56;97.98
70968;BME280;58629;48.808;8.820;2023-08-06T05:19:48;96238.66;;;13.60;96.72
70968;BME280;58629;48.808;8.820;2023-08-06T05:22:13;96233.19;;;13.63;95.96
70968;BME280;58629;48.808;8.820;2023-08-06T05:24:38;96234.97;;;13.66;96.59
70968;BME280;58629;48.808;8.820;2023-08-06T05:27:04;96233.94;;;13.64;96.35
70968;BME280;58629;48.808;8.820;2023-08-06T05:29:30;96237.19;;;13.68;98.72
70968;BME280;58629;48.808;8.820;2023-08-06T05:31:55;96248.41;;;13.63;98.54
70968;BME280;58629;48.808;8.820;2023-08-06T05:34:20;96253.72;;;13.63;100.00
70968;BME280;58629;48.808;8.820;2023-08-06T05:36:45;96257.88;;;13.64;100.00
70968;BME280;58629;48.808;8.820;2023-08-06T05:39:11;96263.50;;;13.66;100.00
70968;BME280;58629;48.808;8.820;2023-08-06T05:41:36;96256.69;;;13.65;100.00
70968;BME280;58629;48.808;8.820;2023-08-06T05:44:01;96259.03;;;13.63;100.00
70968;BME280;58629;48.808;8.820;2023-08-06T05:46:27;96262.03;;;13.56;100.00
70968;BME280;58629;48.808;8.820;2023-08-06T05:48:52;96261.00;;;13.53;100.00
70968;BME280;58629;48.808;8.820;2023-08-06T05:51:17;96263.66;;;13.53;100.00
70968;BME280;58629;48.808;8.820;2023-08-06T05:53:43;96265.13;;;13.54;100.00
70968;BME280;58629;48.808;8.820;2023-08-06T05:56:08;96267.78;;;13.54;100.00
70968;BME280;58629;48.808;8.820;2023-08-06T05:58:33;96269.69;;;13.63;100.00
70968;BME280;58629;48.808;8.820;2023-08-06T06:00:59;96268.22;;;13.62;100.00
70968;BME280;58629;48.808;8.820;2023-08-06T06:03:24;96258.31;;;13.71;100.00
70968;BME280;58629;48.808;8.820;2023-08-06T06:05:49;96268.66;;;13.69;100.00
70968;BME280;58629;48.808;8.820;2023-08-06T06:08:14;96261.41;;;13.61;100.00
70968;BME280;58629;48.808;8.820;2023-08-06T06:10:40;96259.34;;;13.65;100.00
70968;BME280;58629;48.808;8.820;2023-08-06T06:13:05;96264.81;;;13.70;100.00
70968;BME280;58629;48.808;8.820;2023-08-06T06:15:30;96264.66;;;13.74;100.00
70968;BME280;58629;48.808;8.820;2023-08-06T06:17:56;96263.75;;;13.77;100.00
70968;BME280;58629;48.808;8.820;2023-08-06T06:20:21;96257.84;;;13.82;100.00
70968;BME280;58629;48.808;8.820;2023-08-06T06:22:47;96261.81;;;13.86;100.00
70968;BME280;58629;48.808;8.820;2023-08-06T06:25:12;96271.16;;;13.82;100.00
70968;BME280;58629;48.808;8.820;2023-08-06T06:27:37;96276.34;;;13.76;100.00
70968;BME280;58629;48.808;8.820;2023-08-06T06:30:03;96272.19;;;13.75;100.00
70968;BME280;58629;48.808;8.820;2023-08-06T06:32:29;96281.03;;;13.81;100.00
70968;BME280;58629;48.808;8.820;2023-08-06T06:34:54;96285.91;;;13.83;100.00
70968;BME280;58629;48.808;8.820;2023-08-06T06:37:19;96287.13;;;13.82;100.00
70968;BME280;58629;48.808;8.820;2023-08-06T06:39:45;96298.03;;;13.84;100.00
70968;BME280;58629;48.808;8.820;2023-08-06T06:42:10;96294.94;;;13.85;100.00
70968;BME280;58629;48.808;8.820;2023-08-06T06:44:35;96299.50;;;13.85;100.00
70968;BME280;58629;48.808;8.820;2023-08-06T06:47:01;96297.63;;;13.76;100.00
70968;BME280;58629;48.808;8.820;2023-08-06T06:49:26;96295.09;;;13.73;100.00
70968;BME280;58629;48.808;8.820;2023-08-06T06:51:52;96290.22;;;13.80;100.00
70968;BME280;58629;48.808;8.820;2023-08-06T06:54:17;96293.59;;;13.81;100.00
70968;BME280;58629;48.808;8.820;2023-08-06T06:56:42;96290.06;;;13.84;100.00
70968;BME280;58629;48.808;8.820;2023-08-06T06:59:08;96291.06;;;13.86;100.00
70968;BME280;58629;48.808;8.820;2023-08-06T07:01:33;96294.81;;;13.80;100.00
70968;BME280;58629;48.808;8.820;2023-08-06T07:03:58;96288.69;;;13.98;100.00
70968;BME280;58629;48.808;8.820;2023-08-06T07:06:24;96281.72;;;14.09;100.00
70968;BME280;58629;48.808;8.820;2023-08-06T07:08:49;96285.41;;;14.12;100.00
70968;BME280;58629;48.808;8.820;2023-08-06T07:11:14;96287.00;;;14.18;100.00
70968;BME280;58629;48.808;8.820;2023-08-06T07:13:40;96285.47;;;14.26;100.00
70968;BME280;58629;48.808;8.820;2023-08-06T07:16:05;96285.81;;;14.28;100.00
70968;BME280;58629;48.808;8.820;2023-08-06T07:18:30;96287.56;;;14.22;100.00
70968;BME280;58629;48.808;8.820;2023-08-06T07:20:56;96299.59;;;14.18;100.00
70968;BME280;58629;48.808;8.820;2023-08-06T07:23:23;96295.13;;;14.15;100.00
70968;BME280;58629;48.808;8.820;2023-08-06T07:25:48;96299.75;;;14.14;100.00
70968;BME280;58629;48.808;8.820;2023-08-06T07:28:14;96310.53;;;14.11;100.00
70968;BME280;58629;48.808;8.820;2023-08-06T07:30:41;96308.50;;;13.97;99.91
70968;BME280;58629;48.808;8.820;2023-08-06T07:33:06;96307.47;;;14.03;100.00
70968;BME280;58629;48.808;8.820;2023-08-06T07:35:32;96295.59;;;14.13;99.39
70968;BME280;58629;48.808;8.820;2023-08-06T07:37:58;96300.44;;;14.33;100.00
70968;BME280;58629;48.808;8.820;2023-08-06T07:40:23;96298.69;;;14.30;97.95
70968;BME280;58629;48.808;8.820;2023-08-06T07:42:48;96298.16;;;14.49;100.00
70968;BME280;58629;48.808;8.820;2023-08-06T07:45:14;96310.56;;;14.52;96.51
70968;BME280;58629;48.808;8.820;2023-08-06T07:47:39;96301.34;;;14.62;95.04
70968;BME280;58629;48.808;8.820;2023-08-06T07:50:05;96300.66;;;14.76;96.95
70968;BME280;58629;48.808;8.820;2023-08-06T07:52:31;96298.41;;;14.84;94.95
70968;BME280;58629;48.808;8.820;2023-08-06T07:54:56;96300.44;;;14.65;91.70
70968;BME280;58629;48.808;8.820;2023-08-06T07:57:21;96301.78;;;14.61;94.24
70968;BME280;58629;48.808;8.820;2023-08-06T07:59:47;96305.50;;;14.87;94.79
70968;BME280;58629;48.808;8.820;2023-08-06T08:02:12;96303.56;;;14.88;93.04
70968;BME280;58629;48.808;8.820;2023-08-06T08:04:37;96306.13;;;15.06;92.87
70968;BME280;58629;48.808;8.820;2023-08-06T08:07:04;96304.34;;;15.26;94.71
70968;BME280;58629;48.808;8.820;2023-08-06T08:09:29;96305.72;;;15.60;93.92
70968;BME280;58629;48.808;8.820;2023-08-06T08:11:55;96301.09;;;15.46;88.16
70968;BME280;58629;48.808;8.820;2023-08-06T08:14:20;96301.09;;;15.46;90.66
70968;BME280;58629;48.808;8.820;2023-08-06T08:16:45;96298.56;;;15.66;90.11
70968;BME280;58629;48.808;8.820;2023-08-06T08:19:11;96295.69;;;15.55;91.01
70968;BME280;58629;48.808;8.820;2023-08-06T08:21:36;96293.69;;;15.65;89.31
70968;BME280;58629;48.808;8.820;2023-08-06T08:24:04;96288.81;;;15.78;90.98
70968;BME280;58629;48.808;8.820;2023-08-06T08:26:29;96287.25;;;15.86;92.15
70968;BME280;58629;48.808;8.820;2023-08-06T08:28:54;96289.47;;;15.73;88.65
70968;BME280;58629;48.808;8.820;2023-08-06T08:31:20;96291.66;;;15.74;89.85
70968;BME280;58629;48.808;8.820;2023-08-06T08:33:45;96298.66;;;15.86;89.29
70968;BME280;58629;48.808;8.820;2023-08-06T08:36:10;96299.31;;;15.67;90.54
70968;BME280;58629;48.808;8.820;2023-08-06T08:38:36;96291.00;;;15.50;90.78
70968;BME280;58629;48.808;8.820;2023-08-06T08:41:01;96294.69;;;15.52;92.95
70968;BME280;58629;48.808;8.820;2023-08-06T08:43:27;96299.47;;;15.25;95.20
70968;BME280;58629;48.808;8.820;2023-08-06T08:45:53;96290.78;;;15.39;94.72
70968;BME280;58629;48.808;8.820;2023-08-06T08:48:25;96294.44;;;15.41;92.98
70968;BME280;58629;48.808;8.820;2023-08-06T08:50:55;96297.34;;;15.52;94.67
70968;BME280;58629;48.808;8.820;2023-08-06T08:53:21;96297.34;;;15.67;90.37
70968;BME280;58629;48.808;8.820;2023-08-06T08:55:48;96294.69;;;15.52;89.63
70968;BME280;58629;48.808;8.820;2023-08-06T08:58:14;96297.91;;;15.56;91.44
70968;BME280;58629;48.808;8.820;2023-08-06T09:00:41;96297.91;;;15.71;91.92
70968;BME280;58629;48.808;8.820;2023-08-06T09:03:07;96297.53;;;15.93;91.51
70968;BME280;58629;48.808;8.820;2023-08-06T09:05:33;96308.06;;;15.82;91.20
70968;BME280;58629;48.808;8.820;2023-08-06T09:08:02;96286.97;;;15.84;89.44
70968;BME280;58629;48.808;8.820;2023-08-06T09:10:28;96298.56;;;15.81;89.72
70968;BME280;58629;48.808;8.820;2023-08-06T09:12:56;96302.63;;;15.76;86.73
70968;BME280;58629;48.808;8.820;2023-08-06T09:15:25;96311.81;;;15.75;87.00
70968;BME280;58629;48.808;8.820;2023-08-06T09:17:52;96311.91;;;15.81;86.53
70968;BME280;58629;48.808;8.820;2023-08-06T09:20:17;96314.41;;;15.84;87.14
70968;BME280;58629;48.808;8.820;2023-08-06T09:22:42;96317.09;;;15.84;88.28
70968;BME280;58629;48.808;8.820;2023-08-06T09:25:09;96316.72;;;15.77;87.38
70968;BME280;58629;48.808;8.820;2023-08-06T09:27:38;96323.66;;;15.59;88.43
70968;BME280;58629;48.808;8.820;2023-08-06T09:30:05;96326.75;;;15.43;90.68
70968;BME280;58629;48.808;8.820;2023-08-06T09:32:48;96321.38;;;15.29;92.93
70968;BME280;58629;48.808;8.820;2023-08-06T09:35:17;96323.97;;;15.38;92.10
70968;BME280;58629;48.808;8.820;2023-08-06T09:37:43;96321.72;;;15.45;91.49
70968;BME280;58629;48.808;8.820;2023-08-06T09:40:30;96327.22;;;15.42;90.06
70968;BME280;58629;48.808;8.820;2023-08-06T09:42:56;96323.78;;;15.41;91.74
70968;BME280;58629;48.808;8.820;2023-08-06T09:45:23;96332.47;;;15.27;90.92
70968;BME280;58629;48.808;8.820;2023-08-06T09:47:55;96325.59;;;15.21;92.69
70968;BME280;58629;48.808;8.820;2023-08-06T09:50:21;96330.91;;;15.21;90.84
70968;BME280;58629;48.808;8.820;2023-08-06T09:52:47;96337.59;;;15.16;97.42
70968;BME280;58629;48.808;8.820;2023-08-06T09:55:15;96334.25;;;15.30;94.67
70968;BME280;58629;48.808;8.820;2023-08-06T09:57:41;96339.31;;;15.28;93.16
70968;BME280;58629;48.808;8.820;2023-08-06T10:00:08;96346.78;;;15.15;96.02
70968;BME280;58629;48.808;8.820;2023-08-06T10:02:37;96348.31;;;14.84;96.36
70968;BME280;58629;48.808;8.820;2023-08-06T10:05:02;96357.28;;;14.71;99.46
70968;BME280;58629;48.808;8.820;2023-08-06T10:07:29;96357.34;;;14.53;99.78
70968;BME280;58629;48.808;8.820;2023-08-06T10:09:55;96336.66;;;14.72;99.45
70968;BME280;58629;48.808;8.820;2023-08-06T10:12:21;96350.13;;;14.77;96.98
70968;BME280;58629;48.808;8.820;2023-08-06T10:14:47;96350.50;;;14.61;95.58
70968;BME280;58629;48.808;8.820;2023-08-06T10:17:15;96347.50;;;14.68;94.89
70968;BME280;58629;48.808;8.820;2023-08-06T10:19:41;96353.31;;;14.91;95.96
70968;BME280;58629;48.808;8.820;2023-08-06T10:22:17;96351.78;;;14.99;96.03
70968;BME280;58629;48.808;8.820;2023-08-06T10:24:47;96356.09;;;14.96;95.31
70968;BME280;58629;48.808;8.820;2023-08-06T10:27:13;96359.41;;;14.82;93.63
70968;BME280;58629;48.808;8.820;2023-08-06T10:29:38;96371.31;;;14.72;94.23
70968;BME280;58629;48.808;8.820;2023-08-06T10:32:04;96365.88;;;14.66;94.45
70968;BME280;58629;48.808;8.820;2023-08-06T10:35:15;96382.88;;;14.69;92.11
70968;BME280;58629;48.808;8.820;2023-08-06T10:37:52;96383.25;;;14.53;94.86
70968;BME280;58629;48.808;8.820;2023-08-06T10:40:20;96402.19;;;14.55;92.92
70968;BME280;58629;48.808;8.820;2023-08-06T10:42:46;96395.44;;;14.36;95.75
70968;BME280;58629;48.808;8.820;2023-08-06T10:45:15;96396.31;;;14.33;97.54
70968;BME280;58629;48.808;8.820;2023-08-06T10:47:42;96397.66;;;14.37;99.13
70968;BME280;58629;48.808;8.820;2023-08-06T10:50:11;96402.97;;;14.28;96.60
70968;BME280;58629;48.808;8.820;2023-08-06T10:52:36;96390.41;;;14.11;95.79
70968;BME280;58629;48.808;8.820;2023-08-06T10:55:02;96411.28;;;14.12;98.90
70968;BME280;58629;48.808;8.820;2023-08-06T10:57:28;96423.41;;;13.95;97.06
70968;BME280;58629;48.808;8.820;2023-08-06T10:59:53;96423.72;;;13.88;96.40
70968;BME280;58629;48.808;8.820;2023-08-06T11:02:18;96420.91;;;13.73;97.86
70968;BME280;58629;48.808;8.820;2023-08-06T11:04:44;96422.09;;;13.72;99.87
70968;BME280;58629;48.808;8.820;2023-08-06T11:07:09;96439.06;;;13.75;98.85
70968;BME280;58629;48.808;8.820;2023-08-06T11:09:35;96417.81;;;13.84;99.04
70968;BME280;58629;48.808;8.820;2023-08-06T11:12:00;96425.78;;;13.93;98.34
70968;BME280;58629;48.808;8.820;2023-08-06T11:14:25;96431.84;;;13.75;98.42
70968;BME280;58629;48.808;8.820;2023-08-06T11:16:51;96430.78;;;13.73;95.46
70968;BME280;58629;48.808;8.820;2023-08-06T11:19:16;96427.84;;;13.62;94.92
70968;BME280;58629;48.808;8.820;2023-08-06T11:21:43;96434.78;;;13.86;95.02
70968;BME280;58629;48.808;8.820;2023-08-06T11:24:12;96452.53;;;13.62;96.64
70968;BME280;58629;48.808;8.820;2023-08-06T11:26:37;96436.84;;;13.55;97.26
70968;BME280;58629;48.808;8.820;2023-08-06T11:29:05;96456.31;;;13.34;99.09
70968;BME280;58629;48.808;8.820;2023-08-06T11:31:30;96452.19;;;13.42;98.64
70968;BME280;58629;48.808;8.820;2023-08-06T11:33:55;96450.53;;;13.27;98.74
70968;BME280;58629;48.808;8.820;2023-08-06T11:36:37;96462.50;;;13.22;97.05
70968;BME280;58629;48.808;8.820;2023-08-06T11:39:05;96451.56;;;13.20;98.38
70968;BME280;58629;48.808;8.820;2023-08-06T11:41:31;96477.97;;;13.15;97.54
70968;BME280;58629;48.808;8.820;2023-08-06T11:43:57;96455.66;;;13.12;98.74
70968;BME280;58629;48.808;8.820;2023-08-06T11:46:22;96459.06;;;13.13;98.78
70968;BME280;58629;48.808;8.820;2023-08-06T11:48:55;96481.03;;;13.04;99.35
70968;BME280;58629;48.808;8.820;2023-08-06T11:51:27;96468.91;;;13.03;100.00
70968;BME280;58629;48.808;8.820;2023-08-06T11:53:56;96467.47;;;13.11;99.50
70968;BME280;58629;48.808;8.820;2023-08-06T11:56:22;96480.47;;;13.09;100.00
70968;BME280;58629;48.808;8.820;2023-08-06T11:58:48;96483.75;;;13.13;98.09
70968;BME280;58629;48.808;8.820;2023-08-06T12:01:13;96471.75;;;13.09;99.33
70968;BME280;58629;48.808;8.820;2023-08-06T12:03:39;96495.38;;;13.07;99.67
70968;BME280;58629;48.808;8.820;2023-08-06T12:06:05;96482.88;;;13.25;97.07
70968;BME280;58629;48.808;8.820;2023-08-06T12:08:30;96484.97;;;13.39;97.23
70968;BME280;58629;48.808;8.820;2023-08-06T12:10:55;96496.22;;;13.43;98.19
70968;BME280;58629;48.808;8.820;2023-08-06T12:13:21;96489.00;;;13.53;96.00
70968;BME280;58629;48.808;8.820;2023-08-06T12:15:46;96495.22;;;13.59;95.56
70968;BME280;58629;48.808;8.820;2023-08-06T12:18:11;96498.63;;;13.59;92.69
70968;BME280;58629;48.808;8.820;2023-08-06T12:20:37;96502.53;;;13.85;92.78
70968;BME280;58629;48.808;8.820;2023-08-06T12:23:03;96500.75;;;14.19;91.98
70968;BME280;58629;48.808;8.820;2023-08-06T12:25:29;96495.13;;;14.17;91.16
70968;BME280;58629;48.808;8.820;2023-08-06T12:27:54;96499.44;;;14.50;89.87
70968;BME280;58629;48.808;8.820;2023-08-06T12:30:19;96503.59;;;14.51;87.88
70968;BME280;58629;48.808;8.820;2023-08-06T12:32:45;96499.16;;;14.39;86.85
70968;BME280;58629;48.808;8.820;2023-08-06T12:35:10;96504.63;;;14.36;87.38
70968;BME280;58629;48.808;8.820;2023-08-06T12:37:36;96508.59;;;14.40;88.93
70968;BME280;58629;48.808;8.820;2023-08-06T12:40:04;96505.38;;;14.45;86.19
70968;BME280;58629;48.808;8.820;2023-08-06T12:42:29;96511.16;;;14.44;86.16
70968;BME280;58629;48.808;8.820;2023-08-06T12:44:54;96505.06;;;14.43;87.41
70968;BME280;58629;48.808;8.820;2023-08-06T12:47:20;96508.00;;;14.63;86.23
70968;BME280;58629;48.808;8.820;2023-08-06T12:49:45;96500.34;;;14.98;84.01
70968;BME280;58629;48.808;8.820;2023-08-06T12:52:11;96498.00;;;15.33;83.50
70968;BME280;58629;48.808;8.820;2023-08-06T12:54:38;96512.84;;;15.25;80.48